sensor_id;sensor_type;location;lat;lon;timestamp;pressure;altitude;pressure_sealevel;temperature;humidity
22753;BME280;11543;43.144;24.684;2023-02-28T00:02:07;99534.09;;;9.55;78.71
22753;BME280;11543;43.144;24.684;2023-02-28T00:04:35;99550.28;;;9.75;78.29
22753;BME280;11543;43.144;24.684;2023-02-28T00:07:10;99556.84;;;9.92;78.21
22753;BME280;11543;43.144;24.684;2023-02-28T00:09:36;99547.50;;;9.86;77.83
22753;BME280;11543;43.144;24.684;2023-02-28T00:12:01;99566.50;;;10.04;77.29
22753;BME280;11543;43.144;24.684;2023-02-28T00:14:51;99553.44;;;9.89;77.22
22753;BME280;11543;43.144;24.684;2023-02-28T00:17:19;99564.56;;;9.85;77.19
22753;BME280;11543;43.144;24.684;2023-02-28T00:19:48;99583.50;;;9.93;77.05
22753;BME280;11543;43.144;24.684;2023-02-28T00:22:16;99599.16;;;9.88;77.30
22753;BME280;11543;43.144;24.684;2023-02-28T00:24:45;99588.63;;;9.75;77.42
22753;BME280;11543;43.144;24.684;2023-02-28T00:27:14;99595.09;;;9.73;77.98
22753;BME280;11543;43.144;24.684;2023-02-28T00:29:46;99605.28;;;9.79;78.43
22753;BME280;11543;43.144;24.684;2023-02-28T00:32:14;99611.19;;;9.73;77.84
22753;BME280;11543;43.144;24.684;2023-02-28T00:34:41;99620.41;;;9.59;78.16
22753;BME280;11543;43.144;24.684;2023-02-28T00:37:10;99600.69;;;9.49;78.31
22753;BME280;11543;43.144;24.684;2023-02-28T00:39:39;99615.66;;;9.51;78.31
22753;BME280;11543;43.144;24.684;2023-02-28T00:42:08;99618.59;;;9.48;78.72
22753;BME280;11543;43.144;24.684;2023-02-28T00:44:46;99601.59;;;9.38;78.89
22753;BME280;11543;43.144;24.684;2023-02-28T00:47:14;99629.81;;;9.42;79.19
22753;BME280;11543;43.144;24.684;2023-02-28T00:50:00;99631.31;;;9.35;79.06
22753;BME280;11543;43.144;24.684;2023-02-28T00:53:03;99611.91;;;9.22;79.73
22753;BME280;11543;43.144;24.684;2023-02-28T01:02:48;99615.47;;;9.11;80.94
22753;BME280;11543;43.144;24.684;2023-02-28T01:06:11;99632.75;;;9.07;81.12
22753;BME280;11543;43.144;24.684;2023-02-28T01:08:55;99630.22;;;9.06;81.28
22753;BME280;11543;43.144;24.684;2023-02-28T01:11:21;99623.88;;;9.07;81.24
22753;BME280;11543;43.144;24.684;2023-02-28T01:13:46;99621.91;;;9.09;82.04
22753;BME280;11543;43.144;24.684;2023-02-28T01:16:13;99632.72;;;9.18;81.95
22753;BME280;11543;43.144;24.684;2023-02-28T01:18:38;99619.72;;;9.14;81.69
22753;BME280;11543;43.144;24.684;2023-02-28T01:21:07;99620.72;;;9.34;81.95
22753;BME280;11543;43.144;24.684;2023-02-28T01:23:33;99622.50;;;9.44;81.64
22753;BME280;11543;43.144;24.684;2023-02-28T01:26:21;99609.84;;;9.46;81.38
22753;BME280;11543;43.144;24.684;2023-02-28T01:28:48;99605.66;;;9.53;81.08
22753;BME280;11543;43.144;24.684;2023-02-28T01:31:14;99595.03;;;9.63;80.83
22753;BME280;11543;43.144;24.684;2023-02-28T01:33:42;99610.06;;;9.75;80.52
22753;BME280;11543;43.144;24.684;2023-02-28T01:36:15;99605.94;;;9.92;79.59
22753;BME280;11543;43.144;24.684;2023-02-28T01:38:42;99616.41;;;9.95;79.40
22753;BME280;11543;43.144;24.684;2023-02-28T01:41:18;99599.34;;;9.96;78.98
22753;BME280;11543;43.144;24.684;2023-02-28T01:46:10;99623.25;;;10.30;77.83
22753;BME280;11543;43.144;24.684;2023-02-28T01:48:42;99627.06;;;10.37;77.30
22753;BME280;11543;43.144;24.684;2023-02-28T01:51:15;99620.34;;;10.42;77.03
22753;BME280;11543;43.144;24.684;2023-02-28T01:53:45;99625.44;;;10.45;76.91
22753;BME280;11543;43.144;24.684;2023-02-28T01:56:15;99624.06;;;10.51;76.84
22753;BME280;11543;43.144;24.684;2023-02-28T01:58:47;99616.44;;;10.56;76.12
22753;BME280;11543;43.144;24.684;2023-02-28T02:01:13;99604.28;;;10.52;76.00
22753;BME280;11543;43.144;24.684;2023-02-28T02:03:51;99591.16;;;10.49;76.12
22753;BME280;11543;43.144;24.684;2023-02-28T02:06:34;99572.81;;;10.24;76.58
22753;BME280;11543;43.144;24.684;2023-02-28T02:09:01;99573.41;;;10.06;76.62
22753;BME280;11543;43.144;24.684;2023-02-28T02:11:27;99549.53;;;9.94;77.26
22753;BME280;11543;43.144;24.684;2023-02-28T02:24:56;99571.06;;;9.62;80.01
22753;BME280;11543;43.144;24.684;2023-02-28T02:36:26;99581.50;;;9.65;81.25
22753;BME280;11543;43.144;24.684;2023-02-28T02:39:13;99587.53;;;9.78;80.93
22753;BME280;11543;43.144;24.684;2023-02-28T02:41:52;99576.81;;;9.78;80.63
22753;BME280;11543;43.144;24.684;2023-02-28T02:44:25;99570.19;;;9.82;80.50
22753;BME280;11543;43.144;24.684;2023-02-28T02:47:10;99580.13;;;9.91;80.39
22753;BME280;11543;43.144;24.684;2023-02-28T02:49:39;99581.69;;;9.94;80.16
22753;BME280;11543;43.144;24.684;2023-02-28T02:52:12;99568.16;;;9.95;79.99
22753;BME280;11543;43.144;24.684;2023-02-28T02:54:45;99585.41;;;10.02;79.75
22753;BME280;11543;43.144;24.684;2023-02-28T02:57:35;99592.06;;;10.08;79.47
22753;BME280;11543;43.144;24.684;2023-02-28T03:00:03;99589.06;;;10.01;79.16
22753;BME280;11543;43.144;24.684;2023-02-28T03:02:33;99594.34;;;10.12;79.10
22753;BME280;11543;43.144;24.684;2023-02-28T03:05:05;99584.88;;;10.08;78.71
22753;BME280;11543;43.144;24.684;2023-02-28T03:07:31;99603.53;;;10.19;78.78
22753;BME280;11543;43.144;24.684;2023-02-28T03:09:58;99610.16;;;10.15;79.06
22753;BME280;11543;43.144;24.684;2023-02-28T03:30:35;99612.47;;;9.99;79.50
22753;BME280;11543;43.144;24.684;2023-02-28T03:35:54;99598.25;;;9.78;79.38
22753;BME280;11543;43.144;24.684;2023-02-28T03:41:12;99602.75;;;9.56;80.11
22753;BME280;11543;43.144;24.684;2023-02-28T03:44:36;99619.28;;;9.62;80.17
22753;BME280;11543;43.144;24.684;2023-02-28T03:47:05;99617.25;;;9.54;80.73
22753;BME280;11543;43.144;24.684;2023-02-28T03:49:40;99620.03;;;9.52;80.67
22753;BME280;11543;43.144;24.684;2023-02-28T03:52:09;99594.66;;;9.36;80.44
22753;BME280;11543;43.144;24.684;2023-02-28T03:54:55;99620.22;;;9.40;80.53
22753;BME280;11543;43.144;24.684;2023-02-28T04:00:06;99617.50;;;9.19;80.81
22753;BME280;11543;43.144;24.684;2023-02-28T04:02:56;99637.22;;;9.18;81.13
22753;BME280;11543;43.144;24.684;2023-02-28T04:05:51;99646.75;;;9.11;81.47
22753;BME280;11543;43.144;24.684;2023-02-28T04:08:47;99654.28;;;9.06;81.45
22753;BME280;11543;43.144;24.684;2023-02-28T04:12:04;99641.63;;;9.08;81.67
22753;BME280;11543;43.144;24.684;2023-02-28T04:15:12;99638.75;;;8.88;81.45
22753;BME280;11543;43.144;24.684;2023-02-28T04:24:37;99631.25;;;8.60;81.84
22753;BME280;11543;43.144;24.684;2023-02-28T04:27:11;99630.88;;;8.53;81.91
22753;BME280;11543;43.144;24.684;2023-02-28T04:29:37;99658.47;;;8.65;82.01
22753;BME280;11543;43.144;24.684;2023-02-28T04:32:05;99653.38;;;8.51;82.22
22753;BME280;11543;43.144;24.684;2023-02-28T04:34:31;99663.59;;;8.57;82.60
22753;BME280;11543;43.144;24.684;2023-02-28T04:36:57;99658.47;;;8.54;82.79
22753;BME280;11543;43.144;24.684;2023-02-28T04:39:24;99686.00;;;8.67;82.55
22753;BME280;11543;43.144;24.684;2023-02-28T04:41:50;99668.94;;;8.57;82.14
22753;BME280;11543;43.144;24.684;2023-02-28T04:44:18;99658.72;;;8.51;81.92
22753;BME280;11543;43.144;24.684;2023-02-28T04:46:47;99665.28;;;8.47;82.00
22753;BME280;11543;43.144;24.684;2023-02-28T04:49:13;99662.38;;;8.39;82.19
22753;BME280;11543;43.144;24.684;2023-02-28T04:51:39;99671.84;;;8.43;82.53
22753;BME280;11543;43.144;24.684;2023-02-28T04:54:32;99665.41;;;8.45;82.98
22753;BME280;11543;43.144;24.684;2023-02-28T04:57:39;99690.09;;;8.60;82.89
22753;BME280;11543;43.144;24.684;2023-02-28T05:00:24;99680.38;;;8.48;82.20
22753;BME280;11543;43.144;24.684;2023-02-28T05:03:38;99694.72;;;8.58;82.56
22753;BME280;11543;43.144;24.684;2023-02-28T05:06:44;99687.41;;;8.49;82.29
22753;BME280;11543;43.144;24.684;2023-02-28T05:12:49;99703.94;;;8.43;81.07
22753;BME280;11543;43.144;24.684;2023-02-28T05:15:17;99703.47;;;8.38;80.92
22753;BME280;11543;43.144;24.684;2023-02-28T05:17:43;99696.13;;;8.28;80.83
22753;BME280;11543;43.144;24.684;2023-02-28T05:20:11;99706.81;;;8.28;81.18
22753;BME280;11543;43.144;24.684;2023-02-28T05:22:41;99692.59;;;8.17;81.24
22753;BME280;11543;43.144;24.684;2023-02-28T05:25:08;99688.81;;;8.08;81.22
22753;BME280;11543;43.144;24.684;2023-02-28T05:27:39;99709.09;;;8.11;81.77
22753;BME280;11543;43.144;24.684;2023-02-28T05:30:06;99705.56;;;8.10;82.21
22753;BME280;11543;43.144;24.684;2023-02-28T05:32:31;99711.88;;;8.09;82.16
22753;BME280;11543;43.144;24.684;2023-02-28T05:35:01;99689.75;;;7.96;82.30
22753;BME280;11543;43.144;24.684;2023-02-28T05:37:27;99692.78;;;7.91;82.25
22753;BME280;11543;43.144;24.684;2023-02-28T07:22:49;99774.66;;;7.32;84.39
22753;BME280;11543;43.144;24.684;2023-02-28T07:25:41;99787.47;;;7.40;84.48
22753;BME280;11543;43.144;24.684;2023-02-28T07:28:45;99783.41;;;7.34;84.60
22753;BME280;11543;43.144;24.684;2023-02-28T07:31:58;99787.69;;;7.37;84.34
22753;BME280;11543;43.144;24.684;2023-02-28T07:34:23;99779.56;;;7.38;84.52
22753;BME280;11543;43.144;24.684;2023-02-28T07:37:14;99807.06;;;7.51;84.59
22753;BME280;11543;43.144;24.684;2023-02-28T07:43:34;99796.59;;;7.48;84.61
22753;BME280;11543;43.144;24.684;2023-02-28T07:52:47;99793.88;;;7.37;85.18
22753;BME280;11543;43.144;24.684;2023-02-28T08:57:05;99804.19;;;8.02;85.48
22753;BME280;11543;43.144;24.684;2023-02-28T08:59:30;99808.81;;;8.00;85.12
22753;BME280;11543;43.144;24.684;2023-02-28T09:01:56;99824.38;;;8.06;85.16
22753;BME280;11543;43.144;24.684;2023-02-28T09:04:22;99812.22;;;8.02;85.36
22753;BME280;11543;43.144;24.684;2023-02-28T09:06:47;99805.16;;;8.01;85.47
22753;BME280;11543;43.144;24.684;2023-02-28T09:09:18;99810.03;;;8.07;85.38
22753;BME280;11543;43.144;24.684;2023-02-28T09:11:44;99837.28;;;8.12;85.32
22753;BME280;11543;43.144;24.684;2023-02-28T09:14:11;99818.91;;;8.08;85.68
22753;BME280;11543;43.144;24.684;2023-02-28T09:16:36;99828.78;;;8.18;85.51
22753;BME280;11543;43.144;24.684;2023-02-28T09:19:02;99814.31;;;8.10;85.47
22753;BME280;11543;43.144;24.684;2023-02-28T09:21:28;99813.97;;;8.14;85.38
22753;BME280;11543;43.144;24.684;2023-02-28T09:23:53;99831.75;;;8.26;85.72
22753;BME280;11543;43.144;24.684;2023-02-28T09:26:24;99846.19;;;8.48;85.43
22753;BME280;11543;43.144;24.684;2023-02-28T09:28:51;99797.28;;;8.35;85.25
22753;BME280;11543;43.144;24.684;2023-02-28T09:31:20;99822.63;;;8.64;85.09
22753;BME280;11543;43.144;24.684;2023-02-28T09:33:48;99806.38;;;8.67;84.87
22753;BME280;11543;43.144;24.684;2023-02-28T09:36:13;99798.34;;;8.67;85.06
22753;BME280;11543;43.144;24.684;2023-02-28T09:38:39;99813.78;;;8.75;84.40
22753;BME280;11543;43.144;24.684;2023-02-28T09:41:15;99827.53;;;8.81;84.25
22753;BME280;11543;43.144;24.684;2023-02-28T09:43:46;99811.59;;;8.69;84.07
22753;BME280;11543;43.144;24.684;2023-02-28T09:48:57;99838.72;;;8.75;83.37
22753;BME280;11543;43.144;24.684;2023-02-28T09:51:47;99827.47;;;8.59;84.06
22753;BME280;11543;43.144;24.684;2023-02-28T09:54:28;99827.97;;;8.64;84.11
22753;BME280;11543;43.144;24.684;2023-02-28T09:57:04;99830.66;;;8.64;84.31
22753;BME280;11543;43.144;24.684;2023-02-28T10:00:03;99832.16;;;8.68;84.41
22753;BME280;11543;43.144;24.684;2023-02-28T10:03:14;99839.22;;;8.69;84.48
22753;BME280;11543;43.144;24.684;2023-02-28T10:05:51;99813.75;;;8.63;84.82
22753;BME280;11543;43.144;24.684;2023-02-28T10:08:36;99824.00;;;8.70;85.22
22753;BME280;11543;43.144;24.684;2023-02-28T10:11:07;99822.91;;;8.72;85.08
22753;BME280;11543;43.144;24.684;2023-02-28T10:16:31;99823.91;;;8.82;85.33
22753;BME280;11543;43.144;24.684;2023-02-28T10:21:43;99794.34;;;8.84;84.87
22753;BME280;11543;43.144;24.684;2023-02-28T10:24:20;99798.72;;;8.85;85.05
22753;BME280;11543;43.144;24.684;2023-02-28T10:26:48;99792.41;;;8.86;85.13
22753;BME280;11543;43.144;24.684;2023-02-28T10:29:14;99790.09;;;8.92;85.19
22753;BME280;11543;43.144;24.684;2023-02-28T10:31:40;99769.66;;;8.91;84.87
22753;BME280;11543;43.144;24.684;2023-02-28T10:34:07;99787.28;;;9.05;84.66
22753;BME280;11543;43.144;24.684;2023-02-28T10:36:37;99764.06;;;8.94;84.82
22753;BME280;11543;43.144;24.684;2023-02-28T10:41:59;99750.66;;;9.06;84.56
22753;BME280;11543;43.144;24.684;2023-02-28T10:44:25;99760.03;;;9.11;84.25
22753;BME280;11543;43.144;24.684;2023-02-28T10:46:51;99767.44;;;9.19;84.42
22753;BME280;11543;43.144;24.684;2023-02-28T10:49:24;99776.19;;;9.21;83.78
22753;BME280;11543;43.144;24.684;2023-02-28T10:51:54;99769.63;;;9.14;83.49
22753;BME280;11543;43.144;24.684;2023-02-28T10:54:28;99784.00;;;9.13;83.74
22753;BME280;11543;43.144;24.684;2023-02-28T10:57:08;99789.59;;;9.10;83.74
22753;BME280;11543;43.144;24.684;2023-02-28T10:59:34;99777.69;;;9.03;84.00
22753;BME280;11543;43.144;24.684;2023-02-28T11:01:59;99772.69;;;8.98;83.49
22753;BME280;11543;43.144;24.684;2023-02-28T11:09:46;99781.34;;;8.90;83.07
22753;BME280;11543;43.144;24.684;2023-02-28T11:12:37;99769.28;;;8.85;83.15
22753;BME280;11543;43.144;24.684;2023-02-28T11:15:06;99776.94;;;8.89;83.42
22753;BME280;11543;43.144;24.684;2023-02-28T11:17:33;99768.69;;;8.81;83.26
22753;BME280;11543;43.144;24.684;2023-02-28T11:20:04;99787.66;;;8.89;83.65
22753;BME280;11543;43.144;24.684;2023-02-28T11:22:35;99766.13;;;8.80;83.66
22753;BME280;11543;43.144;24.684;2023-02-28T11:25:09;99778.66;;;8.90;83.76
22753;BME280;11543;43.144;24.684;2023-02-28T11:33:52;99766.00;;;8.92;83.94
22753;BME280;11543;43.144;24.684;2023-02-28T11:38:44;99752.88;;;8.89;84.06
22753;BME280;11543;43.144;24.684;2023-02-28T11:41:13;99762.47;;;9.03;84.08
22753;BME280;11543;43.144;24.684;2023-02-28T11:44:18;99757.97;;;9.04;84.40
22753;BME280;11543;43.144;24.684;2023-02-28T11:46:52;99757.72;;;9.07;84.37
22753;BME280;11543;43.144;24.684;2023-02-28T11:56:48;99743.09;;;9.11;83.09
22753;BME280;11543;43.144;24.684;2023-02-28T11:59:28;99743.97;;;9.11;83.46
22753;BME280;11543;43.144;24.684;2023-02-28T12:21:04;99748.00;;;8.83;82.45
22753;BME280;11543;43.144;24.684;2023-02-28T12:24:09;99753.97;;;8.76;82.87
22753;BME280;11543;43.144;24.684;2023-02-28T12:26:44;99753.47;;;8.71;83.14
22753;BME280;11543;43.144;24.684;2023-02-28T12:29:19;99754.66;;;8.67;83.38
22753;BME280;11543;43.144;24.684;2023-02-28T12:35:04;99739.94;;;8.50;83.66
22753;BME280;11543;43.144;24.684;2023-02-28T12:37:40;99757.94;;;8.59;83.71
22753;BME280;11543;43.144;24.684;2023-02-28T12:40:15;99756.09;;;8.59;83.94
22753;BME280;11543;43.144;24.684;2023-02-28T12:42:46;99751.59;;;8.49;83.95
22753;BME280;11543;43.144;24.684;2023-02-28T12:45:21;99699.63;;;8.18;84.25
22753;BME280;11543;43.144;24.684;2023-02-28T12:47:54;99731.16;;;8.37;84.52
22753;BME280;11543;43.144;24.684;2023-02-28T12:50:26;99720.47;;;8.37;84.95
22753;BME280;11543;43.144;24.684;2023-02-28T12:53:18;99745.53;;;8.58;84.71
22753;BME280;11543;43.144;24.684;2023-02-28T12:58:48;99700.78;;;8.38;83.79
22753;BME280;11543;43.144;24.684;2023-02-28T13:09:28;99725.34;;;8.43;83.27
22753;BME280;11543;43.144;24.684;2023-02-28T13:11:55;99695.38;;;8.15;83.77
22753;BME280;11543;43.144;24.684;2023-02-28T13:19:45;99751.84;;;8.46;83.76
22753;BME280;11543;43.144;24.684;2023-02-28T13:22:46;99739.19;;;8.37;83.99
22753;BME280;11543;43.144;24.684;2023-02-28T13:31:08;99729.91;;;8.29;84.32
22753;BME280;11543;43.144;24.684;2023-02-28T13:34:15;99739.13;;;8.25;84.96
22753;BME280;11543;43.144;24.684;2023-02-28T13:39:55;99696.31;;;8.03;84.98
22753;BME280;11543;43.144;24.684;2023-02-28T13:58:25;99754.94;;;8.28;84.75
22753;BME280;11543;43.144;24.684;2023-02-28T14:06:54;99713.81;;;8.07;85.26
22753;BME280;11543;43.144;24.684;2023-02-28T14:09:38;99725.13;;;8.11;85.19
22753;BME280;11543;43.144;24.684;2023-02-28T14:15:39;99726.97;;;8.10;84.64
22753;BME280;11543;43.144;24.684;2023-02-28T14:18:33;99718.94;;;8.10;84.86
22753;BME280;11543;43.144;24.684;2023-02-28T14:21:20;99697.63;;;7.86;84.59
22753;BME280;11543;43.144;24.684;2023-02-28T14:37:53;99740.88;;;7.91;84.98
22753;BME280;11543;43.144;24.684;2023-02-28T14:40:36;99746.59;;;7.98;85.31
22753;BME280;11543;43.144;24.684;2023-02-28T14:43:05;99699.13;;;7.78;85.49
22753;BME280;11543;43.144;24.684;2023-02-28T14:45:33;99732.50;;;7.96;85.03
22753;BME280;11543;43.144;24.684;2023-02-28T14:48:02;99750.75;;;8.02;85.34
22753;BME280;11543;43.144;24.684;2023-02-28T14:50:35;99706.66;;;7.73;85.19
22753;BME280;11543;43.144;24.684;2023-02-28T14:53:01;99743.94;;;7.98;85.29
22753;BME280;11543;43.144;24.684;2023-02-28T14:55:33;99759.75;;;8.12;85.42
22753;BME280;11543;43.144;24.684;2023-02-28T14:58:04;99706.41;;;7.76;84.82
22753;BME280;11543;43.144;24.684;2023-02-28T15:00:48;99712.50;;;7.78;85.05
22753;BME280;11543;43.144;24.684;2023-02-28T15:03:38;99721.72;;;7.74;84.30
22753;BME280;11543;43.144;24.684;2023-02-28T15:06:15;99740.47;;;7.85;84.25
22753;BME280;11543;43.144;24.684;2023-02-28T15:08:43;99762.63;;;7.98;84.23
22753;BME280;11543;43.144;24.684;2023-02-28T15:11:19;99707.47;;;7.62;84.10
22753;BME280;11543;43.144;24.684;2023-02-28T15:13:51;99733.66;;;7.81;84.50
22753;BME280;11543;43.144;24.684;2023-02-28T15:16:25;99710.03;;;7.63;84.56
22753;BME280;11543;43.144;24.684;2023-02-28T15:18:58;99731.44;;;7.75;84.59
22753;BME280;11543;43.144;24.684;2023-02-28T15:21:28;99735.19;;;7.72;84.60
22753;BME280;11543;43.144;24.684;2023-02-28T15:24:13;99707.31;;;7.52;84.59
22753;BME280;11543;43.144;24.684;2023-02-28T15:27:03;99743.09;;;7.74;84.83
22753;BME280;11543;43.144;24.684;2023-02-28T15:29:33;99772.53;;;7.85;85.07
22753;BME280;11543;43.144;24.684;2023-02-28T15:32:07;99757.28;;;7.74;85.11
22753;BME280;11543;43.144;24.684;2023-02-28T15:34:43;99768.91;;;7.86;85.49
22753;BME280;11543;43.144;24.684;2023-02-28T15:40:29;99758.88;;;7.77;84.90
22753;BME280;11543;43.144;24.684;2023-02-28T15:45:37;99742.47;;;7.70;85.23
22753;BME280;11543;43.144;24.684;2023-02-28T15:49:05;99753.09;;;7.83;85.44
22753;BME280;11543;43.144;24.684;2023-02-28T15:51:32;99777.19;;;7.94;85.32
22753;BME280;11543;43.144;24.684;2023-02-28T15:53:58;99782.78;;;7.91;85.59
22753;BME280;11543;43.144;24.684;2023-02-28T15:56:30;99779.13;;;7.92;85.51
22753;BME280;11543;43.144;24.684;2023-02-28T15:59:18;99764.00;;;7.80;85.43
22753;BME280;11543;43.144;24.684;2023-02-28T16:01:45;99770.22;;;7.80;85.49
22753;BME280;11543;43.144;24.684;2023-02-28T16:04:16;99777.66;;;7.88;85.82
22753;BME280;11543;43.144;24.684;2023-02-28T16:09:23;99758.66;;;7.80;85.46
22753;BME280;11543;43.144;24.684;2023-02-28T16:11:50;99770.31;;;7.79;85.29
22753;BME280;11543;43.144;24.684;2023-02-28T16:14:24;99763.38;;;7.76;85.38
22753;BME280;11543;43.144;24.684;2023-02-28T16:16:54;99769.13;;;7.83;84.99
22753;BME280;11543;43.144;24.684;2023-02-28T16:19:20;99784.72;;;7.89;85.07
22753;BME280;11543;43.144;24.684;2023-02-28T16:21:46;99754.44;;;7.64;85.27
22753;BME280;11543;43.144;24.684;2023-02-28T16:24:12;99787.53;;;7.75;85.01
22753;BME280;11543;43.144;24.684;2023-02-28T16:26:44;99772.81;;;7.69;84.73
22753;BME280;11543;43.144;24.684;2023-02-28T16:29:16;99767.06;;;7.62;85.07
22753;BME280;11543;43.144;24.684;2023-02-28T16:31:45;99778.31;;;7.79;85.39
22753;BME280;11543;43.144;24.684;2023-02-28T16:34:10;99759.00;;;7.75;85.26
22753;BME280;11543;43.144;24.684;2023-02-28T16:36:35;99783.00;;;7.88;85.24
22753;BME280;11543;43.144;24.684;2023-02-28T16:39:01;99775.44;;;7.82;84.76
22753;BME280;11543;43.144;24.684;2023-02-28T16:41:28;99800.28;;;7.95;85.20
22753;BME280;11543;43.144;24.684;2023-02-28T16:43:55;99776.59;;;7.78;84.95
22753;BME280;11543;43.144;24.684;2023-02-28T16:46:27;99784.94;;;7.86;84.90
22753;BME280;11543;43.144;24.684;2023-02-28T16:48:55;99773.28;;;7.87;84.99
22753;BME280;11543;43.144;24.684;2023-02-28T16:51:22;99770.16;;;7.93;84.64
22753;BME280;11543;43.144;24.684;2023-02-28T16:53:49;99794.25;;;8.04;84.49
22753;BME280;11543;43.144;24.684;2023-02-28T16:56:22;99745.84;;;7.85;84.56
22753;BME280;11543;43.144;24.684;2023-02-28T16:58:49;99795.00;;;8.17;84.29
22753;BME280;11543;43.144;24.684;2023-02-28T17:01:17;99780.13;;;8.02;84.03
22753;BME280;11543;43.144;24.684;2023-02-28T17:03:47;99782.31;;;7.97;83.97
22753;BME280;11543;43.144;24.684;2023-02-28T17:06:19;99779.63;;;7.97;84.26
22753;BME280;11543;43.144;24.684;2023-02-28T17:08:45;99756.28;;;7.88;84.25
22753;BME280;11543;43.144;24.684;2023-02-28T17:11:12;99763.50;;;7.98;84.52
22753;BME280;11543;43.144;24.684;2023-02-28T17:13:37;99757.28;;;7.98;83.88
22753;BME280;11543;43.144;24.684;2023-02-28T17:16:03;99740.03;;;7.91;83.77
22753;BME280;11543;43.144;24.684;2023-02-28T17:18:28;99767.50;;;8.04;83.85
22753;BME280;11543;43.144;24.684;2023-02-28T17:20:59;99766.50;;;7.94;83.49
22753;BME280;11543;43.144;24.684;2023-02-28T17:23:25;99796.41;;;7.99;83.68
22753;BME280;11543;43.144;24.684;2023-02-28T17:25:53;99813.41;;;7.98;83.61
22753;BME280;11543;43.144;24.684;2023-02-28T17:28:22;99760.66;;;7.65;83.94
22753;BME280;11543;43.144;24.684;2023-02-28T17:30:48;99806.72;;;7.92;83.76
22753;BME280;11543;43.144;24.684;2023-02-28T17:33:14;99779.00;;;7.70;83.21
22753;BME280;11543;43.144;24.684;2023-02-28T17:35:40;99784.06;;;7.61;83.44
22753;BME280;11543;43.144;24.684;2023-02-28T17:38:15;99749.97;;;7.41;83.51
22753;BME280;11543;43.144;24.684;2023-02-28T17:40:41;99758.09;;;7.40;83.78
22753;BME280;11543;43.144;24.684;2023-02-28T17:43:06;99789.34;;;7.50;83.98
22753;BME280;11543;43.144;24.684;2023-02-28T17:45:32;99816.16;;;7.73;84.42
22753;BME280;11543;43.144;24.684;2023-02-28T17:47:59;99790.59;;;7.57;84.41
22753;BME280;11543;43.144;24.684;2023-02-28T17:50:26;99787.19;;;7.55;84.45
22753;BME280;11543;43.144;24.684;2023-02-28T17:52:52;99783.03;;;7.51;84.85
22753;BME280;11543;43.144;24.684;2023-02-28T17:55:21;99783.31;;;7.59;84.74
22753;BME280;11543;43.144;24.684;2023-02-28T17:57:47;99795.25;;;7.66;85.35
22753;BME280;11543;43.144;24.684;2023-02-28T18:00:14;99759.56;;;7.44;84.94
22753;BME280;11543;43.144;24.684;2023-02-28T18:02:41;99746.44;;;7.41;84.95
22753;BME280;11543;43.144;24.684;2023-02-28T18:05:07;99790.88;;;7.65;85.02
22753;BME280;11543;43.144;24.684;2023-02-28T18:07:34;99775.03;;;7.51;84.81
22753;BME280;11543;43.144;24.684;2023-02-28T18:10:00;99747.75;;;7.35;84.42
22753;BME280;11543;43.144;24.684;2023-02-28T18:12:25;99747.53;;;7.38;84.01
22753;BME280;11543;43.144;24.684;2023-02-28T18:14:51;99751.16;;;7.37;83.98
22753;BME280;11543;43.144;24.684;2023-02-28T18:17:17;99761.63;;;7.40;84.38
22753;BME280;11543;43.144;24.684;2023-02-28T18:19:42;99753.59;;;7.40;84.39
22753;BME280;11543;43.144;24.684;2023-02-28T18:22:08;99773.53;;;7.47;84.82
22753;BME280;11543;43.144;24.684;2023-02-28T18:24:34;99789.13;;;7.53;84.77
22753;BME280;11543;43.144;24.684;2023-02-28T18:27:00;99767.28;;;7.35;84.95
22753;BME280;11543;43.144;24.684;2023-02-28T18:29:27;99774.09;;;7.40;85.09
22753;BME280;11543;43.144;24.684;2023-02-28T18:31:55;99790.81;;;7.54;85.18
22753;BME280;11543;43.144;24.684;2023-02-28T18:34:22;99785.94;;;7.48;84.95
22753;BME280;11543;43.144;24.684;2023-02-28T18:36:48;99785.72;;;7.51;85.23
22753;BME280;11543;43.144;24.684;2023-02-28T18:39:16;99748.66;;;7.23;85.22
22753;BME280;11543;43.144;24.684;2023-02-28T18:41:41;99765.25;;;7.39;85.41
22753;BME280;11543;43.144;24.684;2023-02-28T18:44:07;99744.78;;;7.27;85.18
22753;BME280;11543;43.144;24.684;2023-02-28T18:46:33;99763.66;;;7.37;84.91
22753;BME280;11543;43.144;24.684;2023-02-28T18:48:59;99761.22;;;7.33;84.86
22753;BME280;11543;43.144;24.684;2023-02-28T18:51:26;99783.25;;;7.48;85.02
22753;BME280;11543;43.144;24.684;2023-02-28T18:53:52;99773.38;;;7.38;85.26
22753;BME280;11543;43.144;24.684;2023-02-28T18:56:19;99758.88;;;7.29;85.60
22753;BME280;11543;43.144;24.684;2023-02-28T18:58:45;99769.00;;;7.37;85.59
22753;BME280;11543;43.144;24.684;2023-02-28T19:01:20;99782.00;;;7.41;85.78
22753;BME280;11543;43.144;24.684;2023-02-28T19:03:46;99722.97;;;7.09;85.34
22753;BME280;11543;43.144;24.684;2023-02-28T19:06:12;99741.72;;;7.20;85.27
22753;BME280;11543;43.144;24.684;2023-02-28T19:08:38;99769.56;;;7.29;85.77
22753;BME280;11543;43.144;24.684;2023-02-28T19:11:16;99724.78;;;7.09;86.30
22753;BME280;11543;43.144;24.684;2023-02-28T19:13:42;99725.41;;;7.12;86.32
22753;BME280;11543;43.144;24.684;2023-02-28T19:16:14;99747.47;;;7.27;86.55
22753;BME280;11543;43.144;24.684;2023-02-28T19:18:40;99757.47;;;7.36;86.49
22753;BME280;11543;43.144;24.684;2023-02-28T19:21:07;99725.81;;;7.19;86.58
22753;BME280;11543;43.144;24.684;2023-02-28T19:23:36;99767.06;;;7.39;86.80
22753;BME280;11543;43.144;24.684;2023-02-28T19:26:09;99742.19;;;7.38;86.95
22753;BME280;11543;43.144;24.684;2023-02-28T19:28:35;99769.28;;;7.68;86.63
22753;BME280;11543;43.144;24.684;2023-02-28T19:31:01;99762.59;;;7.63;86.22
22753;BME280;11543;43.144;24.684;2023-02-28T19:33:27;99758.31;;;7.60;85.99
22753;BME280;11543;43.144;24.684;2023-02-28T19:35:52;99773.38;;;7.61;85.85
22753;BME280;11543;43.144;24.684;2023-02-28T19:38:18;99788.44;;;7.62;85.79
22753;BME280;11543;43.144;24.684;2023-02-28T19:40:43;99803.66;;;7.73;85.78